Time;durP1;ratioP1;P1;durP2;ratioP2;P2;SDS_P1;SDS_P2;PMS_P1;PMS_P2;Temp;Humidity;BMP_temperature;BMP_pressure;BME280_temperature;BME280_humidity;BME280_pressure;Samples;Min_cycle;Max_cycle;Signal;HPM_P1;HPM_P2
2021/10/06 00:01:47;;;;;;;7.37;6.28;;;;;;;;;;4442027;32;20262;-51
2021/10/06 00:04:12;;;;;;;11.45;6.68;;;;;;;;;;4433092;32;20300;-49
2021/10/06 00:06:38;;;;;;;16.83;7.57;;;;;;;;;;4433203;32;20239;-50
2021/10/06 00:09:06;;;;;;;10.73;7.10;;;;;;;;;;4434972;32;20666;-49
2021/10/06 00:11:31;;;;;;;13.23;7.37;;;;;;;;;;4448437;32;20597;-49
2021/10/06 00:13:56;;;;;;;9.70;5.83;;;;;;;;;;4448514;32;20305;-50
2021/10/06 00:16:22;;;;;;;12.50;7.33;;;;;;;;;;4448523;32;20353;-49
2021/10/06 00:18:47;;;;;;;10.37;6.63;;;;;;;;;;4448442;32;20753;-49
2021/10/06 00:21:13;;;;;;;10.38;7.25;;;;;;;;;;4448561;32;20721;-50
2021/10/06 00:23:38;;;;;;;11.60;6.53;;;;;;;;;;4448972;32;20279;-50
2021/10/06 00:26:05;;;;;;;15.53;6.33;;;;;;;;;;4447351;32;20274;-49
2021/10/06 00:28:30;;;;;;;11.47;5.90;;;;;;;;;;4448503;32;20295;-50
2021/10/06 00:30:57;;;;;;;18.20;6.67;;;;;;;;;;4448403;32;20224;-49
2021/10/06 00:33:25;;;;;;;13.60;6.40;;;;;;;;;;4448391;32;20275;-51
2021/10/06 00:35:51;;;;;;;18.58;6.57;;;;;;;;;;4448285;32;20258;-50
2021/10/06 00:38:16;;;;;;;9.85;6.78;;;;;;;;;;4448182;32;20297;-51
2021/10/06 00:40:42;;;;;;;6.70;6.03;;;;;;;;;;4448364;32;20264;-49
2021/10/06 00:43:07;;;;;;;11.88;7.37;;;;;;;;;;4448062;32;20291;-51
2021/10/06 00:45:33;;;;;;;11.50;7.33;;;;;;;;;;4448482;32;20262;-50
2021/10/06 00:47:58;;;;;;;23.63;9.57;;;;;;;;;;4448278;32;20274;-50
2021/10/06 00:50:24;;;;;;;19.53;14.53;;;;;;;;;;4448070;32;20258;-50
2021/10/06 00:52:49;;;;;;;21.90;13.80;;;;;;;;;;4448536;32;20287;-49
2021/10/06 00:55:15;;;;;;;22.47;13.17;;;;;;;;;;4448046;32;20307;-51
2021/10/06 00:57:42;;;;;;;12.90;9.07;;;;;;;;;;4447965;32;20299;-49
2021/10/06 01:00:09;;;;;;;15.93;11.00;;;;;;;;;;4448006;32;20281;-49
2021/10/06 01:02:35;;;;;;;9.97;8.47;;;;;;;;;;4447729;32;20264;-49
2021/10/06 01:05:00;;;;;;;12.87;7.57;;;;;;;;;;4447948;32;20791;-50
2021/10/06 01:07:26;;;;;;;11.50;8.23;;;;;;;;;;4446238;32;20334;-49
2021/10/06 01:09:52;;;;;;;14.03;6.80;;;;;;;;;;4447526;32;20308;-50
2021/10/06 01:12:19;;;;;;;10.30;6.73;;;;;;;;;;4447646;32;20281;-50
2021/10/06 01:14:46;;;;;;;13.10;8.00;;;;;;;;;;4448127;32;20308;-49
2021/10/06 01:17:11;;;;;;;12.07;6.93;;;;;;;;;;4447734;32;20350;-50
2021/10/06 01:19:36;;;;;;;11.90;7.40;;;;;;;;;;4447959;32;20675;-49
2021/10/06 01:22:02;;;;;;;14.40;7.20;;;;;;;;;;4447725;32;20289;-49
2021/10/06 01:24:29;;;;;;;9.23;7.03;;;;;;;;;;4448113;32;20608;-49
2021/10/06 01:26:54;;;;;;;13.48;7.35;;;;;;;;;;4447776;32;20240;-50
2021/10/06 01:29:20;;;;;;;10.18;7.05;;;;;;;;;;4447761;32;20645;-49
2021/10/06 01:31:47;;;;;;;11.15;7.10;;;;;;;;;;4447826;32;20295;-49
2021/10/06 01:34:15;;;;;;;13.27;7.53;;;;;;;;;;4447679;32;20280;-49
2021/10/06 01:36:40;;;;;;;12.07;5.87;;;;;;;;;;4447651;32;20310;-49
2021/10/06 01:39:08;;;;;;;12.40;6.40;;;;;;;;;;4447589;32;20378;-49
2021/10/06 01:41:34;;;;;;;10.02;6.65;;;;;;;;;;4447733;32;20365;-49
2021/10/06 01:44:01;;;;;;;16.17;7.37;;;;;;;;;;4447202;32;20244;-49
2021/10/06 01:46:27;;;;;;;12.33;6.70;;;;;;;;;;4447495;32;20418;-50
2021/10/06 01:48:52;;;;;;;12.77;6.53;;;;;;;;;;4447399;32;20292;-50
2021/10/06 01:51:18;;;;;;;9.57;7.40;;;;;;;;;;4447178;32;20323;-49
2021/10/06 01:53:43;;;;;;;12.67;7.87;;;;;;;;;;4446459;32;20319;-49
2021/10/06 01:56:09;;;;;;;12.07;8.23;;;;;;;;;;4447501;32;20323;-50
2021/10/06 01:58:35;;;;;;;12.03;7.87;;;;;;;;;;4447704;32;20220;-50
2021/10/06 02:01:01;;;;;;;14.80;9.47;;;;;;;;;;4447120;32;20315;-50
2021/10/06 02:03:26;;;;;;;17.40;10.90;;;;;;;;;;4446944;32;20283;-51
2021/10/06 02:05:53;;;;;;;26.70;12.10;;;;;;;;;;4447292;32;20637;-49
2021/10/06 02:08:20;;;;;;;20.97;11.53;;;;;;;;;;4447060;32;20347;-50
2021/10/06 02:10:46;;;;;;;19.30;12.17;;;;;;;;;;4447480;32;20286;-49
2021/10/06 02:13:12;;;;;;;24.13;12.03;;;;;;;;;;4446154;32;20375;-50
2021/10/06 02:15:38;;;;;;;27.47;12.43;;;;;;;;;;4447645;32;20242;-49
2021/10/06 02:18:03;;;;;;;19.70;11.20;;;;;;;;;;4447258;32;20292;-50
2021/10/06 02:20:29;;;;;;;17.37;10.50;;;;;;;;;;4447302;32;20224;-49
2021/10/06 02:22:55;;;;;;;26.23;11.07;;;;;;;;;;4449695;32;20291;-50
2021/10/06 02:25:21;;;;;;;21.40;12.50;;;;;;;;;;4450503;32;20837;-49
2021/10/06 02:27:47;;;;;;;15.23;10.53;;;;;;;;;;4450101;32;20292;-50
2021/10/06 02:30:14;;;;;;;21.23;11.97;;;;;;;;;;4450013;32;20228;-50
2021/10/06 02:32:40;;;;;;;16.73;10.50;;;;;;;;;;4449827;32;20239;-50
2021/10/06 02:35:07;;;;;;;20.17;12.30;;;;;;;;;;4450035;32;20232;-49
2021/10/06 02:37:32;;;;;;;25.07;11.87;;;;;;;;;;4449962;32;20209;-50
2021/10/06 02:39:58;;;;;;;20.00;10.90;;;;;;;;;;4450069;32;20251;-50
2021/10/06 02:42:23;;;;;;;15.45;11.05;;;;;;;;;;4449828;32;20689;-49
2021/10/06 02:44:49;;;;;;;15.17;9.23;;;;;;;;;;4449843;32;20525;-49
2021/10/06 02:47:14;;;;;;;18.50;10.37;;;;;;;;;;4449917;32;20378;-50
2021/10/06 02:49:40;;;;;;;18.43;11.30;;;;;;;;;;4449648;32;20353;-50
2021/10/06 02:52:05;;;;;;;17.42;10.65;;;;;;;;;;4449577;32;20209;-49
2021/10/06 02:54:31;;;;;;;11.27;8.80;;;;;;;;;;4449776;32;20333;-48
2021/10/06 02:57:01;;;;;;;16.73;9.63;;;;;;;;;;4448333;32;20637;-49
2021/10/06 02:59:28;;;;;;;14.23;9.07;;;;;;;;;;4449518;32;20256;-49
2021/10/06 03:01:53;;;;;;;16.30;9.93;;;;;;;;;;4449233;32;20216;-48
2021/10/06 03:04:19;;;;;;;13.50;9.73;;;;;;;;;;4449547;32;20301;-50
2021/10/06 03:06:44;;;;;;;20.47;9.10;;;;;;;;;;4449614;32;20351;-49
2021/10/06 03:09:11;;;;;;;20.70;10.47;;;;;;;;;;4449366;32;20276;-49
2021/10/06 03:11:37;;;;;;;16.20;10.03;;;;;;;;;;4449532;32;20612;-48
2021/10/06 03:14:02;;;;;;;14.97;9.93;;;;;;;;;;4449458;32;20347;-49
2021/10/06 03:16:28;;;;;;;17.63;10.30;;;;;;;;;;4449566;32;20558;-49
2021/10/06 03:18:53;;;;;;;14.23;8.83;;;;;;;;;;4449643;32;20336;-48
2021/10/06 03:21:19;;;;;;;16.37;9.60;;;;;;;;;;4449035;32;20348;-48
2021/10/06 03:23:44;;;;;;;13.03;9.97;;;;;;;;;;4449517;32;20315;-49
2021/10/06 03:26:09;;;;;;;19.00;9.30;;;;;;;;;;4449419;32;20656;-49
2021/10/06 03:28:35;;;;;;;17.73;10.13;;;;;;;;;;4449354;32;20347;-49
2021/10/06 03:31:00;;;;;;;15.73;9.20;;;;;;;;;;4449252;32;20345;-49
2021/10/06 03:33:26;;;;;;;12.37;9.13;;;;;;;;;;4448348;32;20354;-49
2021/10/06 03:35:51;;;;;;;16.63;10.77;;;;;;;;;;4449215;32;20305;-49
2021/10/06 03:38:16;;;;;;;20.87;10.40;;;;;;;;;;4449017;32;20604;-49
2021/10/06 03:40:42;;;;;;;13.62;10.02;;;;;;;;;;4449126;32;20524;-49
2021/10/06 03:43:07;;;;;;;26.90;12.07;;;;;;;;;;4448874;32;20730;-51
2021/10/06 03:45:33;;;;;;;21.10;13.13;;;;;;;;;;4449329;32;20305;-49
2021/10/06 03:47:58;;;;;;;18.47;11.37;;;;;;;;;;4448939;32;20283;-50
2021/10/06 03:50:24;;;;;;;27.50;13.07;;;;;;;;;;4448878;32;20802;-49
2021/10/06 03:52:49;;;;;;;25.80;14.13;;;;;;;;;;4448929;32;20725;-49
2021/10/06 03:55:15;;;;;;;27.17;14.10;;;;;;;;;;4448621;32;20288;-50
2021/10/06 03:57:41;;;;;;;26.30;13.77;;;;;;;;;;4448820;32;20694;-49
2021/10/06 04:00:08;;;;;;;20.53;12.80;;;;;;;;;;4448832;32;20255;-49
2021/10/06 04:02:33;;;;;;;20.00;12.40;;;;;;;;;;4436947;32;20296;-49
2021/10/06 04:04:59;;;;;;;23.50;12.53;;;;;;;;;;4433476;32;20248;-51
2021/10/06 04:07:24;;;;;;;21.80;12.97;;;;;;;;;;4433023;32;20233;-49
2021/10/06 04:09:50;;;;;;;23.73;13.00;;;;;;;;;;4433545;32;20244;-49
2021/10/06 04:12:15;;;;;;;18.33;11.90;;;;;;;;;;4433247;32;20502;-49
2021/10/06 04:14:41;;;;;;;20.53;10.63;;;;;;;;;;4433259;32;20411;-49
2021/10/06 04:17:06;;;;;;;17.70;11.00;;;;;;;;;;4433025;32;20329;-49
2021/10/06 04:19:32;;;;;;;14.73;10.53;;;;;;;;;;4433061;32;20230;-49
2021/10/06 04:21:57;;;;;;;19.20;9.53;;;;;;;;;;4433002;32;20197;-49
2021/10/06 04:24:22;;;;;;;20.77;11.43;;;;;;;;;;4432682;32;20304;-48
2021/10/06 04:26:48;;;;;;;21.53;13.17;;;;;;;;;;4431774;32;20300;-50
2021/10/06 04:29:13;;;;;;;21.20;12.93;;;;;;;;;;4446766;32;20267;-49
2021/10/06 04:31:39;;;;;;;21.67;13.80;;;;;;;;;;4448316;32;20208;-49
2021/10/06 04:34:04;;;;;;;30.17;16.37;;;;;;;;;;4448262;32;20380;-49
2021/10/06 04:36:30;;;;;;;22.20;15.67;;;;;;;;;;4447932;32;20584;-51
2021/10/06 04:38:56;;;;;;;34.20;19.20;;;;;;;;;;4447981;32;20566;-50
2021/10/06 04:41:21;;;;;;;30.43;17.20;;;;;;;;;;4448195;32;20307;-49
2021/10/06 04:43:47;;;;;;;25.20;16.00;;;;;;;;;;4447684;32;20364;-51
2021/10/06 04:46:12;;;;;;;18.57;11.60;;;;;;;;;;4447230;32;20688;-50
2021/10/06 04:48:38;;;;;;;21.17;12.50;;;;;;;;;;4447767;32;20299;-50
2021/10/06 04:51:03;;;;;;;21.83;9.47;;;;;;;;;;4447264;32;20311;-49
2021/10/06 04:53:28;;;;;;;14.63;7.77;;;;;;;;;;4447184;32;20339;-49
2021/10/06 04:55:54;;;;;;;15.63;7.97;;;;;;;;;;4447474;32;20617;-50
2021/10/06 04:58:19;;;;;;;14.45;8.25;;;;;;;;;;4447482;32;20220;-50
2021/10/06 05:00:45;;;;;;;15.00;8.63;;;;;;;;;;4447786;32;20217;-49
2021/10/06 05:03:12;;;;;;;14.53;9.43;;;;;;;;;;4447355;32;20341;-49
2021/10/06 05:05:39;;;;;;;22.13;8.10;;;;;;;;;;4447492;32;20384;-49
2021/10/06 05:08:06;;;;;;;15.73;8.90;;;;;;;;;;4447446;32;20205;-50
2021/10/06 05:10:32;;;;;;;14.87;9.37;;;;;;;;;;4447392;32;20303;-49
2021/10/06 05:12:57;;;;;;;14.27;9.07;;;;;;;;;;4447455;32;20365;-49
2021/10/06 05:15:23;;;;;;;15.13;9.20;;;;;;;;;;4447764;32;20285;-49
2021/10/06 05:17:49;;;;;;;13.17;8.27;;;;;;;;;;4447246;32;20283;-50
2021/10/06 05:20:14;;;;;;;18.70;9.43;;;;;;;;;;4447304;32;20704;-49
2021/10/06 05:22:39;;;;;;;14.60;8.90;;;;;;;;;;4446211;32;20284;-49
2021/10/06 05:25:05;;;;;;;14.80;8.47;;;;;;;;;;4446839;32;20229;-50
2021/10/06 05:27:31;;;;;;;13.60;8.32;;;;;;;;;;4447633;32;20302;-50
2021/10/06 05:29:57;;;;;;;13.93;8.87;;;;;;;;;;4447040;32;20223;-50
2021/10/06 05:32:23;;;;;;;12.97;8.87;;;;;;;;;;4446880;32;20229;-50
2021/10/06 05:34:49;;;;;;;18.53;9.30;;;;;;;;;;4447614;32;20276;-50
2021/10/06 05:37:14;;;;;;;24.03;11.37;;;;;;;;;;4447355;32;20231;-50
2021/10/06 05:39:40;;;;;;;27.87;10.73;;;;;;;;;;4447158;32;20258;-51
2021/10/06 05:42:05;;;;;;;20.40;10.50;;;;;;;;;;4447493;32;20452;-50
2021/10/06 05:44:31;;;;;;;23.97;10.47;;;;;;;;;;4445565;32;20414;-49
2021/10/06 05:46:56;;;;;;;24.67;8.53;;;;;;;;;;4446484;32;20232;-49
2021/10/06 05:49:22;;;;;;;19.63;10.27;;;;;;;;;;4445794;32;20654;-48
2021/10/06 05:51:47;;;;;;;17.93;9.40;;;;;;;;;;4444809;32;20328;-49
2021/10/06 05:54:13;;;;;;;16.40;9.17;;;;;;;;;;4444957;32;20696;-49
2021/10/06 05:56:39;;;;;;;16.37;8.67;;;;;;;;;;4446349;32;20308;-49
2021/10/06 05:59:04;;;;;;;17.80;9.23;;;;;;;;;;4448292;32;20712;-49
2021/10/06 06:01:30;;;;;;;18.87;10.17;;;;;;;;;;4448211;32;20386;-49
2021/10/06 06:03:56;;;;;;;20.60;11.07;;;;;;;;;;4448400;32;20763;-50
2021/10/06 06:06:21;;;;;;;25.15;10.10;;;;;;;;;;4449155;32;20287;-49
2021/10/06 06:08:46;;;;;;;16.53;10.40;;;;;;;;;;4449808;32;20374;-49
2021/10/06 06:11:12;;;;;;;18.17;10.60;;;;;;;;;;4443448;32;20274;-49
2021/10/06 06:13:37;;;;;;;21.70;12.57;;;;;;;;;;4449970;32;20350;-49
2021/10/06 06:16:04;;;;;;;28.83;11.53;;;;;;;;;;4449874;32;20252;-50
2021/10/06 06:18:30;;;;;;;16.77;11.30;;;;;;;;;;4449584;32;20223;-51
2021/10/06 06:20:55;;;;;;;23.10;10.17;;;;;;;;;;4449507;32;20549;-51
2021/10/06 06:23:21;;;;;;;24.70;8.83;;;;;;;;;;4449982;32;20299;-50
2021/10/06 06:25:46;;;;;;;17.90;8.87;;;;;;;;;;4450383;32;20355;-51
2021/10/06 06:28:12;;;;;;;19.07;9.20;;;;;;;;;;4449795;32;20274;-51
2021/10/06 06:30:37;;;;;;;25.00;9.43;;;;;;;;;;4450180;32;20335;-49
2021/10/06 06:33:03;;;;;;;15.30;8.70;;;;;;;;;;4449383;32;20275;-49
2021/10/06 06:35:29;;;;;;;13.20;8.70;;;;;;;;;;4449529;32;20232;-49
2021/10/06 06:37:54;;;;;;;15.37;8.30;;;;;;;;;;4448060;32;20672;-49
2021/10/06 06:40:20;;;;;;;13.67;8.57;;;;;;;;;;4449404;32;20335;-48
2021/10/06 06:42:45;;;;;;;14.30;8.63;;;;;;;;;;4449259;32;20336;-48
2021/10/06 06:45:11;;;;;;;16.80;8.50;;;;;;;;;;4447089;32;20350;-49
2021/10/06 06:47:36;;;;;;;10.13;8.27;;;;;;;;;;4448678;32;20260;-49
2021/10/06 06:50:04;;;;;;;15.60;8.07;;;;;;;;;;4448945;32;20240;-49
2021/10/06 06:52:29;;;;;;;13.57;7.90;;;;;;;;;;4448874;32;20216;-51
2021/10/06 06:54:54;;;;;;;12.13;8.47;;;;;;;;;;4449216;32;20380;-50
2021/10/06 06:57:20;;;;;;;14.47;7.93;;;;;;;;;;4448650;32;20350;-49
2021/10/06 06:59:45;;;;;;;18.70;8.23;;;;;;;;;;4448981;32;20236;-49
2021/10/06 07:02:13;;;;;;;18.50;7.57;;;;;;;;;;4448414;32;20350;-49
2021/10/06 07:04:38;;;;;;;17.13;8.27;;;;;;;;;;4449207;32;20225;-49
2021/10/06 07:07:05;;;;;;;13.82;7.30;;;;;;;;;;4448881;32;20200;-49
2021/10/06 07:09:31;;;;;;;13.90;8.67;;;;;;;;;;4447808;32;20327;-49
2021/10/06 07:11:56;;;;;;;22.13;9.23;;;;;;;;;;4448794;32;20563;-48
2021/10/06 07:14:22;;;;;;;11.10;7.85;;;;;;;;;;4448805;32;20252;-50
2021/10/06 07:16:48;;;;;;;19.73;9.10;;;;;;;;;;4448639;32;20208;-50
2021/10/06 07:19:14;;;;;;;15.00;8.40;;;;;;;;;;4448787;32;20670;-48
2021/10/06 07:21:46;;;;;;;19.97;9.23;;;;;;;;;;4448587;32;20205;-50
2021/10/06 07:24:13;;;;;;;12.13;7.50;;;;;;;;;;4448818;32;20697;-49
2021/10/06 07:26:38;;;;;;;11.63;8.57;;;;;;;;;;4448548;32;20204;-49
2021/10/06 07:29:04;;;;;;;16.08;9.40;;;;;;;;;;4448590;32;20361;-49
2021/10/06 07:31:29;;;;;;;16.17;9.20;;;;;;;;;;4448437;32;20333;-50
2021/10/06 07:33:57;;;;;;;13.70;9.57;;;;;;;;;;4437944;32;20702;-50
2021/10/06 07:36:24;;;;;;;11.30;8.20;;;;;;;;;;4432442;32;20240;-49
2021/10/06 07:38:49;;;;;;;17.70;8.83;;;;;;;;;;4432485;32;20265;-49
2021/10/06 07:41:15;;;;;;;15.63;10.20;;;;;;;;;;4435671;32;20232;-49
2021/10/06 07:43:41;;;;;;;24.80;9.90;;;;;;;;;;4446897;32;20308;-50
2021/10/06 07:46:06;;;;;;;27.40;9.33;;;;;;;;;;4448368;32;20310;-49
2021/10/06 07:48:31;;;;;;;12.13;7.90;;;;;;;;;;4448115;32;20254;-50
2021/10/06 07:50:57;;;;;;;14.15;9.10;;;;;;;;;;4448077;32;20342;-49
2021/10/06 07:53:22;;;;;;;14.43;9.48;;;;;;;;;;4448054;32;20542;-49
2021/10/06 07:55:48;;;;;;;21.23;9.82;;;;;;;;;;4447139;32;20288;-50
2021/10/06 07:58:13;;;;;;;21.20;9.52;;;;;;;;;;4448125;32;20594;-50
2021/10/06 08:00:38;;;;;;;12.55;8.65;;;;;;;;;;4447923;32;20535;-49
2021/10/06 08:03:04;;;;;;;15.15;9.18;;;;;;;;;;4432843;32;20303;-49
2021/10/06 08:05:29;;;;;;;12.52;7.85;;;;;;;;;;4432839;32;20274;-49
2021/10/06 08:07:55;;;;;;;20.85;8.77;;;;;;;;;;4432561;32;20680;-50
2021/10/06 08:10:20;;;;;;;13.27;7.07;;;;;;;;;;4432661;32;20327;-49
2021/10/06 08:12:46;;;;;;;10.20;7.53;;;;;;;;;;4437450;32;20246;-50
2021/10/06 08:15:11;;;;;;;13.82;6.28;;;;;;;;;;4448082;32;20627;-50
2021/10/06 08:17:37;;;;;;;10.18;6.32;;;;;;;;;;4447396;32;20200;-49
2021/10/06 08:20:03;;;;;;;16.52;6.75;;;;;;;;;;4446418;32;20691;-49
2021/10/06 08:22:28;;;;;;;7.32;6.07;;;;;;;;;;4447733;32;20671;-50
2021/10/06 08:24:54;;;;;;;11.27;5.87;;;;;;;;;;4448212;32;20371;-50
2021/10/06 08:27:19;;;;;;;14.60;6.90;;;;;;;;;;4447712;32;20637;-49
2021/10/06 08:29:45;;;;;;;10.80;7.03;;;;;;;;;;4447922;32;20294;-49
2021/10/06 08:32:10;;;;;;;10.25;6.70;;;;;;;;;;4446560;32;20310;-49
2021/10/06 08:34:36;;;;;;;11.95;6.75;;;;;;;;;;4447731;32;20249;-49
2021/10/06 08:37:01;;;;;;;12.32;6.70;;;;;;;;;;4447464;32;20653;-50
2021/10/06 08:39:27;;;;;;;9.83;5.83;;;;;;;;;;4447087;32;20256;-49
2021/10/06 08:41:52;;;;;;;17.17;7.03;;;;;;;;;;4442221;32;20340;-50
2021/10/06 08:44:21;;;;;;;14.18;7.25;;;;;;;;;;4443622;32;20227;-50
2021/10/06 08:46:46;;;;;;;8.80;6.40;;;;;;;;;;4447409;32;20403;-51
2021/10/06 08:49:12;;;;;;;13.30;7.43;;;;;;;;;;4447826;32;20340;-50
2021/10/06 08:51:37;;;;;;;14.77;8.63;;;;;;;;;;4446423;32;20232;-50
2021/10/06 08:54:03;;;;;;;11.15;7.07;;;;;;;;;;4448041;32;20333;-50
2021/10/06 08:56:29;;;;;;;16.95;8.52;;;;;;;;;;4447701;32;20721;-50
2021/10/06 08:58:55;;;;;;;16.40;7.82;;;;;;;;;;4447429;32;20715;-51
2021/10/06 09:01:28;;;;;;;12.80;7.68;;;;;;;;;;4446881;32;20284;-50
2021/10/06 09:04:00;;;;;;;11.50;7.53;;;;;;;;;;4442569;32;20298;-51
2021/10/06 09:06:36;;;;;;;16.23;8.48;;;;;;;;;;4432080;32;20660;-50
2021/10/06 09:09:23;;;;;;;13.90;7.20;;;;;;;;;;4436812;32;20274;-50
2021/10/06 09:11:53;;;;;;;11.88;7.07;;;;;;;;;;4447128;32;20189;-51
2021/10/06 09:14:20;;;;;;;14.27;7.65;;;;;;;;;;4447109;32;20315;-50
2021/10/06 09:16:46;;;;;;;19.25;7.85;;;;;;;;;;4446787;32;20220;-50
2021/10/06 09:19:32;;;;;;;14.75;7.40;;;;;;;;;;4447309;32;20343;-50
2021/10/06 09:21:58;;;;;;;14.38;7.62;;;;;;;;;;4447963;32;20331;-50
2021/10/06 09:24:25;;;;;;;15.38;7.70;;;;;;;;;;4446936;32;20228;-50
2021/10/06 09:27:05;;;;;;;16.08;7.32;;;;;;;;;;4447213;32;20204;-50
2021/10/06 09:29:30;;;;;;;12.90;7.43;;;;;;;;;;4447487;32;20328;-50
2021/10/06 09:31:57;;;;;;;10.93;7.10;;;;;;;;;;4431905;32;20216;-50
2021/10/06 09:34:22;;;;;;;14.02;7.20;;;;;;;;;;4448195;32;20622;-49
2021/10/06 09:36:48;;;;;;;12.63;7.40;;;;;;;;;;4450806;32;20209;-52
2021/10/06 09:39:13;;;;;;;11.00;7.18;;;;;;;;;;4450391;32;20275;-50
2021/10/06 09:41:46;;;;;;;8.13;6.37;;;;;;;;;;4450562;32;20252;-50
2021/10/06 09:44:20;;;;;;;10.98;6.82;;;;;;;;;;4450343;32;20211;-50
2021/10/06 09:46:53;;;;;;;19.35;7.47;;;;;;;;;;4450631;32;20263;-49
2021/10/06 09:49:28;;;;;;;12.13;6.80;;;;;;;;;;4450426;32;20661;-51
2021/10/06 09:52:13;;;;;;;9.98;6.20;;;;;;;;;;4450601;32;20563;-50
2021/10/06 09:54:39;;;;;;;13.73;6.93;;;;;;;;;;4450448;32;20648;-49
2021/10/06 09:57:05;;;;;;;15.60;8.07;;;;;;;;;;4450113;32;20248;-50
2021/10/06 09:59:31;;;;;;;10.00;7.20;;;;;;;;;;4450370;32;20410;-50
2021/10/06 10:01:59;;;;;;;11.18;7.03;;;;;;;;;;4442116;32;20723;-50
2021/10/06 10:04:27;;;;;;;11.82;7.22;;;;;;;;;;4434803;32;20232;-50
2021/10/06 10:06:55;;;;;;;9.70;6.78;;;;;;;;;;4449987;32;20262;-49
2021/10/06 10:09:20;;;;;;;8.65;6.55;;;;;;;;;;4449768;32;20574;-50
2021/10/06 10:11:47;;;;;;;7.90;6.50;;;;;;;;;;4448585;32;20318;-50
2021/10/06 10:14:13;;;;;;;12.40;7.30;;;;;;;;;;4438333;32;20275;-50
2021/10/06 10:16:39;;;;;;;18.65;7.03;;;;;;;;;;4432799;32;20604;-49
2021/10/06 10:19:10;;;;;;;9.60;6.60;;;;;;;;;;4434649;32;20283;-50
2021/10/06 10:21:41;;;;;;;12.37;6.35;;;;;;;;;;4441692;32;20263;-50
2021/10/06 10:24:12;;;;;;;14.87;7.12;;;;;;;;;;4449219;32;20535;-50
2021/10/06 10:27:06;;;;;;;9.65;6.60;;;;;;;;;;4450141;32;20335;-50
2021/10/06 10:29:57;;;;;;;14.40;6.30;;;;;;;;;;4449670;32;20619;-50
2021/10/06 10:32:25;;;;;;;9.75;7.28;;;;;;;;;;4449340;32;20254;-50
2021/10/06 10:35:00;;;;;;;13.18;6.75;;;;;;;;;;4449936;32;20364;-50
2021/10/06 10:37:53;;;;;;;9.23;5.97;;;;;;;;;;4449904;32;20212;-50
2021/10/06 10:40:34;;;;;;;12.57;6.25;;;;;;;;;;4449223;32;20223;-50
2021/10/06 10:43:10;;;;;;;8.70;6.20;;;;;;;;;;4448838;32;20224;-49
2021/10/06 10:46:09;;;;;;;15.80;6.50;;;;;;;;;;4448963;32;20355;-50
2021/10/06 10:48:56;;;;;;;12.55;7.50;;;;;;;;;;4449459;32;20205;-50
2021/10/06 10:51:42;;;;;;;9.20;5.30;;;;;;;;;;4449133;32;20329;-50
2021/10/06 10:54:10;;;;;;;15.30;7.05;;;;;;;;;;4449261;32;20265;-50
2021/10/06 10:56:42;;;;;;;9.05;5.93;;;;;;;;;;4449309;32;20244;-50
2021/10/06 10:59:16;;;;;;;7.47;5.10;;;;;;;;;;4449631;32;20217;-51
2021/10/06 11:01:45;;;;;;;9.52;6.70;;;;;;;;;;4449088;32;20751;-50
2021/10/06 11:04:38;;;;;;;14.05;6.53;;;;;;;;;;4449529;32;20335;-50
2021/10/06 11:07:18;;;;;;;10.80;6.12;;;;;;;;;;4447325;32;20229;-50
2021/10/06 11:09:54;;;;;;;10.85;6.07;;;;;;;;;;4449791;32;20251;-50
2021/10/06 11:12:20;;;;;;;11.35;6.90;;;;;;;;;;4447646;32;20263;-49
2021/10/06 11:15:04;;;;;;;8.70;6.85;;;;;;;;;;4449490;32;20311;-49
2021/10/06 11:17:30;;;;;;;12.52;7.45;;;;;;;;;;4449030;32;20232;-51
2021/10/06 11:19:56;;;;;;;15.27;6.75;;;;;;;;;;4449292;32;20647;-51
2021/10/06 11:22:24;;;;;;;8.07;7.28;;;;;;;;;;4448533;32;20723;-51
2021/10/06 11:24:55;;;;;;;8.82;6.30;;;;;;;;;;4448966;32;20302;-49
2021/10/06 11:27:21;;;;;;;12.32;7.35;;;;;;;;;;4448588;32;20444;-50
2021/10/06 11:29:52;;;;;;;15.88;6.82;;;;;;;;;;4449066;32;20708;-49
2021/10/06 11:32:17;;;;;;;8.27;6.70;;;;;;;;;;4449070;32;20247;-49
2021/10/06 11:34:48;;;;;;;12.43;6.30;;;;;;;;;;4449132;32;20649;-50
2021/10/06 11:37:19;;;;;;;11.77;7.03;;;;;;;;;;4448404;32;20212;-50
2021/10/06 11:39:46;;;;;;;19.17;8.57;;;;;;;;;;4449070;32;20241;-49
2021/10/06 11:42:11;;;;;;;9.75;7.10;;;;;;;;;;4449231;32;20283;-49
2021/10/06 11:44:38;;;;;;;8.48;6.75;;;;;;;;;;4449183;32;20650;-50
2021/10/06 11:47:05;;;;;;;7.47;6.62;;;;;;;;;;4448571;32;20204;-50
2021/10/06 11:49:36;;;;;;;8.23;6.62;;;;;;;;;;4449144;32;20404;-50
2021/10/06 11:52:04;;;;;;;14.07;7.03;;;;;;;;;;4447707;32;20307;-50
2021/10/06 11:54:29;;;;;;;13.32;6.50;;;;;;;;;;4448736;32;20255;-50
2021/10/06 11:57:07;;;;;;;15.07;7.93;;;;;;;;;;4449047;32;20675;-50
2021/10/06 11:59:33;;;;;;;15.85;7.50;;;;;;;;;;4433969;32;20248;-49
2021/10/06 12:02:03;;;;;;;7.68;5.90;;;;;;;;;;4433152;32;20247;-49
2021/10/06 12:04:32;;;;;;;10.27;7.55;;;;;;;;;;4433699;32;20295;-50
2021/10/06 12:07:15;;;;;;;10.43;7.25;;;;;;;;;;4433594;32;20208;-50
2021/10/06 12:09:47;;;;;;;9.50;7.07;;;;;;;;;;4434183;32;20252;-50
2021/10/06 12:12:19;;;;;;;13.55;7.10;;;;;;;;;;4433395;32;20217;-50
2021/10/06 12:14:48;;;;;;;9.55;7.40;;;;;;;;;;4433679;32;20237;-50
2021/10/06 12:17:36;;;;;;;7.68;6.95;;;;;;;;;;4433038;32;20204;-50
2021/10/06 12:20:09;;;;;;;11.73;7.85;;;;;;;;;;4433539;32;20338;-50
2021/10/06 12:22:37;;;;;;;8.60;7.00;;;;;;;;;;4437952;32;20208;-50
2021/10/06 12:25:14;;;;;;;10.35;7.18;;;;;;;;;;4448608;32;20319;-50
2021/10/06 12:27:42;;;;;;;8.43;7.60;;;;;;;;;;4449137;32;20200;-49
2021/10/06 12:30:09;;;;;;;10.30;7.62;;;;;;;;;;4448442;32;20233;-50
2021/10/06 12:32:35;;;;;;;9.13;7.18;;;;;;;;;;4449073;32;20243;-49
2021/10/06 12:35:06;;;;;;;10.85;8.70;;;;;;;;;;4448971;32;20251;-49
2021/10/06 12:37:32;;;;;;;12.07;8.43;;;;;;;;;;4448695;32;20350;-51
2021/10/06 12:39:57;;;;;;;12.02;8.75;;;;;;;;;;4449119;32;20248;-51
2021/10/06 12:42:23;;;;;;;13.13;9.77;;;;;;;;;;4448531;32;20224;-50
2021/10/06 12:44:49;;;;;;;15.90;8.98;;;;;;;;;;4448329;32;20637;-51
2021/10/06 12:47:18;;;;;;;9.73;8.05;;;;;;;;;;4448279;32;20273;-51
2021/10/06 12:49:50;;;;;;;9.32;8.40;;;;;;;;;;4448760;32;20691;-51
2021/10/06 12:52:25;;;;;;;11.73;8.93;;;;;;;;;;4431571;32;20228;-49
2021/10/06 12:55:08;;;;;;;12.73;8.32;;;;;;;;;;4443027;32;20224;-49
2021/10/06 12:57:35;;;;;;;10.23;8.23;;;;;;;;;;4448425;32;20239;-49
2021/10/06 13:00:01;;;;;;;11.80;8.20;;;;;;;;;;4448463;32;20258;-49
2021/10/06 13:02:26;;;;;;;14.32;9.27;;;;;;;;;;4447639;32;20214;-49
2021/10/06 13:04:52;;;;;;;13.05;8.63;;;;;;;;;;4448218;32;20596;-50
2021/10/06 13:07:17;;;;;;;11.02;8.20;;;;;;;;;;4447431;32;20248;-49
2021/10/06 13:09:44;;;;;;;9.65;8.05;;;;;;;;;;4448153;32;20253;-49
2021/10/06 13:12:10;;;;;;;12.40;9.20;;;;;;;;;;4448214;32;20197;-49
2021/10/06 13:14:35;;;;;;;8.23;6.62;;;;;;;;;;4448584;32;20592;-51
2021/10/06 13:17:02;;;;;;;12.63;9.00;;;;;;;;;;4448332;32;20302;-50
2021/10/06 13:19:27;;;;;;;9.75;8.75;;;;;;;;;;4447867;32;20256;-50
2021/10/06 13:21:56;;;;;;;14.98;8.25;;;;;;;;;;4448373;32;20301;-50
2021/10/06 13:24:22;;;;;;;8.40;7.53;;;;;;;;;;4447959;32;20284;-50
2021/10/06 13:26:48;;;;;;;13.02;8.65;;;;;;;;;;4448426;32;20280;-50
2021/10/06 13:29:24;;;;;;;10.38;7.93;;;;;;;;;;4447987;32;20329;-48
2021/10/06 13:31:50;;;;;;;8.88;7.53;;;;;;;;;;4447956;32;20207;-51
2021/10/06 13:34:16;;;;;;;9.65;8.23;;;;;;;;;;4446976;32;20701;-51
2021/10/06 13:36:42;;;;;;;9.95;8.32;;;;;;;;;;4447523;32;20295;-50
2021/10/06 13:39:08;;;;;;;12.02;8.13;;;;;;;;;;4447932;32;20360;-49
2021/10/06 13:41:34;;;;;;;10.38;8.02;;;;;;;;;;4448516;32;20595;-49
2021/10/06 13:44:01;;;;;;;7.85;7.03;;;;;;;;;;4447855;32;20692;-49
2021/10/06 13:46:30;;;;;;;15.52;8.52;;;;;;;;;;4447754;32;20216;-49
2021/10/06 13:48:56;;;;;;;9.75;7.22;;;;;;;;;;4447859;32;20193;-50
2021/10/06 13:51:22;;;;;;;10.60;7.32;;;;;;;;;;4447483;32;20393;-49
2021/10/06 13:53:47;;;;;;;8.93;7.07;;;;;;;;;;4448066;32;20632;-51
2021/10/06 13:56:13;;;;;;;9.65;7.47;;;;;;;;;;4447414;32;20240;-49
2021/10/06 13:58:39;;;;;;;9.65;7.62;;;;;;;;;;4446613;32;20326;-50
2021/10/06 14:01:05;;;;;;;11.35;6.82;;;;;;;;;;4447118;32;20293;-49
2021/10/06 14:03:32;;;;;;;8.98;7.53;;;;;;;;;;4447992;32;20557;-51
2021/10/06 14:05:57;;;;;;;9.45;7.75;;;;;;;;;;4446897;32;20667;-49
2021/10/06 14:08:23;;;;;;;8.90;7.72;;;;;;;;;;4447403;32;20299;-49
2021/10/06 14:10:48;;;;;;;11.90;8.02;;;;;;;;;;4447453;32;20342;-50
2021/10/06 14:13:14;;;;;;;9.82;6.97;;;;;;;;;;4447045;32;20271;-50
2021/10/06 14:15:39;;;;;;;9.57;7.40;;;;;;;;;;4446918;32;20254;-50
2021/10/06 14:18:05;;;;;;;7.97;6.57;;;;;;;;;;4448779;32;20288;-52
2021/10/06 14:20:30;;;;;;;8.45;6.85;;;;;;;;;;4450132;32;20596;-50
2021/10/06 14:22:56;;;;;;;8.80;7.78;;;;;;;;;;4450048;32;20287;-52
2021/10/06 14:25:21;;;;;;;10.93;7.10;;;;;;;;;;4450078;32;20327;-50
2021/10/06 14:27:49;;;;;;;7.40;6.70;;;;;;;;;;4450408;32;20322;-50
2021/10/06 14:30:15;;;;;;;6.93;6.22;;;;;;;;;;4449718;32;20338;-50